KHKA/HKA METAR and TAF weather

Enter ICAO airport designator
Station Type Date Time Source
KHKA METAR 2022/12/04 11:53 UTC NOAA

KHKA 041153Z AUTO 04005KT 10SM BKN110 00/M03 A3035 RMK AO2 SLP281 T00001033 10000 21017 56017 $


Station Type Date Time Source
KHKA Decoded METAR 2022/12/04 11:53 UTC NOAA

BLYTHEVILLE MUNICIPAL AIRPORT , AR, United States (KHKA) 35-56N 89-50W 78M
Dec 04, 2022 - 06:53 AM EST / 2022.12.04 1153 UTC
Wind: from the NE (040 degrees) at 6 MPH (5 KT):0
Visibility: 10 mile(s):0
Sky conditions: mostly cloudy
Temperature: 32.0 F (0.0 C)
Windchill: 26 F (-3 C):1
Dew Point: 26.1 F (-3.3 C)
Relative Humidity: 78%
Pressure (altimeter): 30.35 in. Hg (1027 hPa)
Pressure tendency: 0.05 inches (1.7 hPa) lower than three hours ago
ob: KHKA 041153Z AUTO 04005KT 10SM BKN110 00/M03 A3035 RMK AO2 SLP281 T00001033 10000 21017 56017
cycle: 12

Station Type Date Time Source
KHKA TAF UTC NOAA

Error!

Example: see airport list